createdAt,value
2022-11-16T00:00:06.896Z,9.15
2022-11-16T00:02:06.963Z,9.17
2022-11-16T00:04:06.889Z,9.25
2022-11-16T00:05:28.895Z,9.32
2022-11-16T00:07:28.990Z,9.38
2022-11-16T00:09:28.878Z,9.33
2022-11-16T00:11:28.893Z,9.25
2022-11-16T00:13:28.897Z,9.17
2022-11-16T00:15:28.934Z,9.28
2022-11-16T00:17:28.873Z,9.32
2022-11-16T00:21:12.572Z,9.12
2022-11-16T00:23:12.508Z,8.78
2022-11-16T00:25:12.541Z,8.67
2022-11-16T00:27:12.512Z,8.68
2022-11-16T00:29:12.519Z,8.79
2022-11-16T00:31:12.502Z,8.78
2022-11-16T00:33:12.551Z,8.77
2022-11-16T00:36:03.341Z,8.9
2022-11-16T00:38:03.362Z,8.93
2022-11-16T00:40:03.354Z,8.96
2022-11-16T00:42:03.369Z,9.01
2022-11-16T00:44:03.389Z,9.05
2022-11-16T00:46:03.351Z,8.97
2022-11-16T00:48:03.373Z,8.94
2022-11-16T00:50:45.569Z,9.07
2022-11-16T00:52:45.548Z,8.84
2022-11-16T00:54:45.588Z,8.95
2022-11-16T00:56:45.544Z,8.66
2022-11-16T00:58:45.587Z,8.75
2022-11-16T01:00:45.540Z,8.95
2022-11-16T01:02:45.539Z,9.08
2022-11-16T01:04:45.549Z,9.06
2022-11-16T01:06:50.422Z,9.05
2022-11-16T01:08:50.354Z,9.16
2022-11-16T01:10:50.389Z,9.15
2022-11-16T01:12:50.332Z,9.17
2022-11-16T01:14:50.382Z,9.26
2022-11-16T01:16:50.362Z,9.07
2022-11-16T01:18:50.353Z,8.73
2022-11-16T01:21:11.009Z,8.69
2022-11-16T01:23:10.995Z,8.72
2022-11-16T01:25:11.085Z,8.66
2022-11-16T01:27:11.028Z,8.68
2022-11-16T01:29:11.017Z,8.87
2022-11-16T01:31:11.000Z,9.03
2022-11-16T01:33:10.998Z,8.68
2022-11-16T01:36:54.886Z,8.65
2022-11-16T01:38:54.891Z,8.86
2022-11-16T01:40:54.885Z,8.57
2022-11-16T01:42:54.908Z,8.45
2022-11-16T01:44:54.924Z,8.78
2022-11-16T01:46:54.868Z,8.96
2022-11-16T01:48:54.877Z,9.07
2022-11-16T01:52:04.969Z,9.16
2022-11-16T01:54:04.970Z,9.03
2022-11-16T01:56:04.991Z,9.2
2022-11-16T01:58:04.987Z,9.17
2022-11-16T02:00:05.008Z,9.27
2022-11-16T02:02:04.958Z,9.24
2022-11-16T02:04:04.946Z,9.05
2022-11-16T02:07:29.266Z,9.16
2022-11-16T02:09:29.245Z,9.26
2022-11-16T02:11:29.262Z,9.29
2022-11-16T02:13:29.281Z,9.36
2022-11-16T02:15:29.281Z,9.28
2022-11-16T02:17:29.290Z,9.39
2022-11-16T02:19:29.246Z,9.28
2022-11-16T02:22:13.124Z,9.39
2022-11-16T02:24:13.052Z,9.37
2022-11-16T02:26:13.058Z,9.37
2022-11-16T02:28:13.095Z,9.28
2022-11-16T02:30:13.070Z,9.35
2022-11-16T02:32:13.056Z,9.24
2022-11-16T02:34:13.080Z,8.73
2022-11-16T02:37:01.689Z,9.02
2022-11-16T02:39:01.746Z,9.2
2022-11-16T02:41:01.695Z,9.3
2022-11-16T02:43:01.685Z,9.26
2022-11-16T02:45:01.714Z,9.29
2022-11-16T02:47:01.834Z,9.15
2022-11-16T02:49:01.730Z,9.06
2022-11-16T02:52:47.210Z,9.06
2022-11-16T02:54:47.189Z,8.65
2022-11-16T02:56:47.081Z,8.79
2022-11-16T02:58:47.142Z,8.87
2022-11-16T03:00:47.128Z,8.74
2022-11-16T03:02:47.321Z,8.5
2022-11-16T03:04:47.094Z,8.75
2022-11-16T03:08:00.450Z,8.98
2022-11-16T03:10:00.395Z,8.71
2022-11-16T03:12:00.394Z,8.79
2022-11-16T03:14:00.428Z,9.1
2022-11-16T03:16:00.383Z,9.28
2022-11-16T03:18:00.409Z,9.28
2022-11-16T03:20:00.458Z,8.95
2022-11-16T03:22:50.584Z,8.68
2022-11-16T03:24:50.622Z,9.06
2022-11-16T03:26:50.627Z,9.2
2022-11-16T03:28:50.638Z,9.22
2022-11-16T03:30:50.578Z,9.3
2022-11-16T03:32:50.591Z,9.41
2022-11-16T03:34:50.647Z,9.51
2022-11-16T03:38:01.275Z,9.61
2022-11-16T03:40:01.330Z,9.44
2022-11-16T03:42:01.293Z,9.06
2022-11-16T03:44:01.302Z,9.19
2022-11-16T03:46:01.302Z,9.22
2022-11-16T03:48:01.272Z,9.26
2022-11-16T03:50:01.300Z,9
2022-11-16T03:53:29.485Z,9.08
2022-11-16T03:55:29.490Z,9.1
2022-11-16T03:57:29.490Z,8.79
2022-11-16T03:59:29.488Z,8.73
2022-11-16T04:01:29.588Z,8.85
2022-11-16T04:03:29.491Z,9.17
2022-11-16T04:05:29.500Z,9.12
2022-11-16T04:08:12.497Z,8.64
2022-11-16T04:10:12.450Z,9.03
2022-11-16T04:12:12.469Z,9.07
2022-11-16T04:14:12.495Z,9.2
2022-11-16T04:16:12.446Z,9.28
2022-11-16T04:18:12.474Z,9.22
2022-11-16T04:20:12.469Z,9.2
2022-11-16T04:23:36.351Z,9.33
2022-11-16T04:25:36.292Z,9.3
2022-11-16T04:27:36.315Z,9.16
2022-11-16T04:29:36.308Z,9.19
2022-11-16T04:31:36.313Z,9.24
2022-11-16T04:33:36.339Z,9.11
2022-11-16T04:35:36.310Z,9.15
2022-11-16T04:38:22.563Z,9.08
2022-11-16T04:40:22.583Z,9.27
2022-11-16T04:42:22.543Z,9.3
2022-11-16T04:44:26.014Z,8.97
2022-11-16T04:46:22.563Z,8.61
2022-11-16T04:48:22.545Z,8.7
2022-11-16T04:50:22.492Z,8.94
2022-11-16T04:52:22.552Z,9.19
2022-11-16T04:54:03.694Z,9.25
2022-11-16T04:56:03.669Z,9.21
2022-11-16T04:58:03.796Z,9.27
2022-11-16T05:00:03.729Z,9.06
2022-11-16T05:02:03.733Z,9.07
2022-11-16T05:04:03.827Z,9.26
2022-11-16T05:06:03.697Z,9.46
2022-11-16T05:09:31.520Z,9.34
2022-11-16T05:11:31.547Z,8.55
2022-11-16T05:13:31.520Z,8.64
2022-11-16T05:15:31.587Z,8.99
2022-11-16T05:17:31.554Z,9.15
2022-11-16T05:19:31.511Z,8.95
2022-11-16T05:21:31.532Z,8.92
2022-11-16T05:24:01.451Z,8.76
2022-11-16T05:26:01.369Z,9
2022-11-16T05:28:01.337Z,8.89
2022-11-16T05:30:01.297Z,9.07
2022-11-16T05:32:01.391Z,9.09
2022-11-16T05:34:01.368Z,9.26
2022-11-16T05:36:01.329Z,9.04
2022-11-16T05:39:28.771Z,9.12
2022-11-16T05:41:25.752Z,9.27
2022-11-16T05:43:25.735Z,9.48
2022-11-16T05:45:25.767Z,9.13
2022-11-16T05:47:25.835Z,8.73
2022-11-16T05:49:25.737Z,8.65
2022-11-16T05:51:25.870Z,8.74
2022-11-16T05:54:31.669Z,8.83
2022-11-16T05:56:31.701Z,8.84
2022-11-16T05:58:32.187Z,9.14
2022-11-16T06:00:31.678Z,8.9
2022-11-16T06:02:31.813Z,8.88
2022-11-16T06:04:31.862Z,8.64
2022-11-16T06:06:31.701Z,8.94
2022-11-16T06:09:41.166Z,9.33
2022-11-16T06:11:41.282Z,9.49
2022-11-16T06:13:41.264Z,9.63
2022-11-16T06:15:41.219Z,9.64
2022-11-16T06:17:41.430Z,9.42
2022-11-16T06:19:41.145Z,9.31
2022-11-16T06:21:41.180Z,9.46
2022-11-16T06:24:38.927Z,9.48
2022-11-16T06:26:38.957Z,9.75
2022-11-16T06:28:38.991Z,9.97
2022-11-16T06:30:38.931Z,9.89
2022-11-16T06:32:38.896Z,9.7
2022-11-16T06:34:39.071Z,9.61
2022-11-16T06:36:38.941Z,9.51
2022-11-16T06:39:49.795Z,9.71
2022-11-16T06:41:49.829Z,9.49
2022-11-16T06:43:49.840Z,9.33
2022-11-16T06:45:49.781Z,9.47
2022-11-16T06:47:49.808Z,9.65
2022-11-16T06:49:50.223Z,9.73
2022-11-16T06:51:49.841Z,9.94
2022-11-16T06:55:18.170Z,9.7
2022-11-16T06:57:18.206Z,9.81
2022-11-16T06:59:18.237Z,9.71
2022-11-16T07:01:18.259Z,9.59
2022-11-16T07:03:18.206Z,9.75
2022-11-16T07:05:18.297Z,9.92
2022-11-16T07:07:18.279Z,10.08
2022-11-16T07:10:11.000Z,10.45
2022-11-16T07:12:10.991Z,10.01
2022-11-16T07:14:11.042Z,10.05
2022-11-16T07:16:11.010Z,10.08
2022-11-16T07:18:11.036Z,10.35
2022-11-16T07:27:45.088Z,8.71
2022-11-16T07:29:44.869Z,9.05
2022-11-16T07:31:44.820Z,9.24
2022-11-16T07:33:44.794Z,9.52
2022-11-16T07:35:44.846Z,9.83
2022-11-16T07:37:44.826Z,9.85
2022-11-16T07:39:45.157Z,9.68
2022-11-16T07:41:49.541Z,10.29
2022-11-16T07:43:52.921Z,9.4
2022-11-16T07:45:49.542Z,9.67
2022-11-16T07:47:49.543Z,10.03
2022-11-16T07:49:49.565Z,10.31
2022-11-16T07:51:49.528Z,10.23
2022-11-16T07:53:49.541Z,9.91
2022-11-16T07:56:51.836Z,10.8
2022-11-16T07:58:51.910Z,11
2022-11-16T08:00:51.966Z,11.15
2022-11-16T08:02:51.865Z,11.25
2022-11-16T08:04:51.854Z,11.4
2022-11-16T08:06:51.998Z,11.28
2022-11-16T08:08:56.782Z,11.54
2022-11-16T08:12:09.866Z,11.64
2022-11-16T08:14:09.879Z,11.55
2022-11-16T08:16:09.843Z,11.74
2022-11-16T08:18:09.809Z,11.39
2022-11-16T08:20:09.829Z,11.69
2022-11-16T08:22:09.815Z,11.43
2022-11-16T08:24:09.838Z,11.69
2022-11-16T08:27:22.358Z,11.26
2022-11-16T08:29:22.384Z,11.64
2022-11-16T08:31:22.413Z,11.96
2022-11-16T08:33:22.396Z,11.83
2022-11-16T08:35:22.414Z,11.5
2022-11-16T08:37:22.370Z,11.1
2022-11-16T08:39:22.358Z,11.66
2022-11-16T08:42:27.403Z,11.98
2022-11-16T08:44:27.368Z,12.28
2022-11-16T08:46:27.575Z,12.29
2022-11-16T08:48:27.279Z,12.31
2022-11-16T08:50:27.366Z,12.4
2022-11-16T08:52:27.324Z,12.49
2022-11-16T08:54:27.285Z,12.41
2022-11-16T08:57:57.072Z,12.8
2022-11-16T08:59:57.077Z,12.77
2022-11-16T09:01:57.217Z,12.64
2022-11-16T09:03:57.074Z,12.8
2022-11-16T09:05:57.046Z,12.54
2022-11-16T09:07:57.041Z,12.43
2022-11-16T09:09:57.027Z,12.5
2022-11-16T09:12:52.559Z,12.7
2022-11-16T09:14:52.564Z,12.89
2022-11-16T09:16:52.542Z,12.57
2022-11-16T09:18:52.683Z,12.91
2022-11-16T09:20:52.602Z,13.39
2022-11-16T09:22:52.595Z,13.53
2022-11-16T09:24:52.539Z,13.89
2022-11-16T09:28:10.227Z,12.33
2022-11-16T09:30:10.213Z,13.69
2022-11-16T09:32:10.200Z,14.3
2022-11-16T09:34:10.358Z,14.52
2022-11-16T09:36:10.229Z,15
2022-11-16T09:38:11.211Z,15.26
2022-11-16T09:42:22.267Z,14.62
2022-11-16T09:44:20.211Z,14.72
2022-11-16T09:46:20.228Z,14.78
2022-11-16T09:48:20.226Z,14.82
2022-11-16T09:50:20.285Z,15.15
2022-11-16T09:52:20.216Z,15.4
2022-11-16T09:54:20.213Z,15.46
2022-11-16T09:56:22.213Z,15.52
2022-11-16T09:58:11.900Z,15.46
2022-11-16T10:00:11.911Z,15.22
2022-11-16T10:02:11.910Z,15.01
2022-11-16T10:04:12.350Z,14.62
2022-11-16T10:06:12.038Z,14.81
2022-11-16T10:08:11.894Z,14.9
2022-11-16T10:10:14.663Z,15.36
2022-11-16T10:13:45.240Z,15.12
2022-11-16T10:15:45.190Z,15.63
2022-11-16T10:17:45.234Z,15.54
2022-11-16T10:19:45.181Z,15.69
2022-11-16T10:21:45.310Z,15.36
2022-11-16T10:23:45.222Z,15.3
2022-11-16T10:25:45.204Z,15.44
2022-11-16T10:28:43.801Z,15.37
2022-11-16T10:30:43.822Z,15.29
2022-11-16T10:32:43.790Z,14.86
2022-11-16T10:34:43.807Z,14.97
2022-11-16T10:36:43.795Z,15.23
2022-11-16T10:38:43.959Z,15.01
2022-11-16T10:40:43.796Z,14.85
2022-11-16T10:44:05.272Z,14.8
2022-11-16T10:46:05.225Z,14.65
2022-11-16T10:48:05.235Z,14.75
2022-11-16T10:50:05.263Z,14.56
2022-11-16T10:52:05.254Z,14.66
2022-11-16T10:54:05.381Z,14.6
2022-11-16T10:56:05.286Z,14.48
2022-11-16T10:58:47.829Z,14.6
2022-11-16T11:00:47.839Z,14.54
2022-11-16T11:02:47.764Z,14.25
2022-11-16T11:04:47.812Z,14.18
2022-11-16T11:06:47.922Z,14.06
2022-11-16T11:08:47.807Z,14.25
2022-11-16T11:13:33.190Z,14.18
2022-11-16T11:15:32.670Z,14.17
2022-11-16T11:17:32.662Z,14.09
2022-11-16T11:19:33.714Z,14.12
2022-11-16T11:21:32.676Z,14.22
2022-11-16T11:23:33.007Z,14.35
2022-11-16T11:25:32.700Z,14.4
2022-11-16T11:27:32.658Z,14.4
2022-11-16T11:29:34.046Z,14.46
2022-11-16T11:31:33.875Z,14.53
2022-11-16T11:33:34.146Z,14.48
2022-11-16T11:35:33.898Z,14.51
2022-11-16T11:37:33.876Z,14.64
2022-11-16T11:39:33.977Z,14.65
2022-11-16T11:41:33.912Z,14.58
2022-11-16T11:43:53.156Z,14.83
2022-11-16T11:45:53.442Z,14.88
2022-11-16T11:48:00.814Z,14.94
2022-11-16T11:49:53.231Z,14.46
2022-11-16T11:51:53.142Z,14.5
2022-11-16T11:53:53.183Z,14.27
2022-11-16T11:55:53.171Z,14.27
2022-11-16T11:57:53.143Z,14.08
2022-11-16T11:59:36.230Z,13.94
2022-11-16T12:01:36.334Z,14.14
2022-11-16T12:03:36.502Z,14.14
2022-11-16T12:05:36.219Z,14.17
2022-11-16T12:07:36.286Z,14
2022-11-16T12:09:36.271Z,13.89
2022-11-16T12:11:36.209Z,13.82
2022-11-16T12:14:37.168Z,13.7
2022-11-16T12:16:37.128Z,13.69
2022-11-16T12:18:37.283Z,13.82
2022-11-16T12:20:37.123Z,13.87
2022-11-16T12:22:37.133Z,14.01
2022-11-16T12:24:37.163Z,14.14
2022-11-16T12:26:37.173Z,14.08
2022-11-16T12:29:22.470Z,14.23
2022-11-16T12:31:22.427Z,14.1
2022-11-16T12:33:22.630Z,14.18
2022-11-16T12:35:22.447Z,14.13
2022-11-16T12:37:22.585Z,14.15
2022-11-16T12:39:22.501Z,14.23
2022-11-16T12:41:22.457Z,14.13
2022-11-16T12:43:22.459Z,14.17
2022-11-16T12:44:59.507Z,14.19
2022-11-16T12:46:59.566Z,14.1
2022-11-16T12:48:59.440Z,14.15
2022-11-16T12:50:59.533Z,14.27
2022-11-16T12:52:59.471Z,14.31
2022-11-16T12:55:24.583Z,14.47
2022-11-16T12:56:59.434Z,14.6
2022-11-16T12:59:56.470Z,14.57
2022-11-16T13:02:00.410Z,14.46
2022-11-16T13:03:56.421Z,14.43
2022-11-16T13:05:56.415Z,14.51
2022-11-16T13:07:56.473Z,14.38
2022-11-16T13:09:56.428Z,14.05
2022-11-16T13:11:56.422Z,14.38
2022-11-16T13:15:18.487Z,14.3
2022-11-16T13:17:18.454Z,14.4
2022-11-16T13:19:18.443Z,14.47
2022-11-16T13:21:18.496Z,14.42
2022-11-16T13:23:18.575Z,14.2
2022-11-16T13:25:18.491Z,14.3
2022-11-16T13:27:18.447Z,14.34
2022-11-16T13:30:19.461Z,14.22
2022-11-16T13:32:19.430Z,14.24
2022-11-16T13:34:19.459Z,14.29
2022-11-16T13:36:19.418Z,14.29
2022-11-16T13:38:19.463Z,13.91
2022-11-16T13:40:19.559Z,14.02
2022-11-16T13:42:19.392Z,14.16
2022-11-16T13:46:02.793Z,14.32
2022-11-16T13:48:02.845Z,14.27
2022-11-16T13:50:02.846Z,14.42
2022-11-16T13:52:17.110Z,14.53
2022-11-16T13:56:02.895Z,14.42
2022-11-16T13:58:02.826Z,14.64
2022-11-16T14:01:10.016Z,14.53
2022-11-16T14:03:09.975Z,14.43
2022-11-16T14:05:09.939Z,14.5
2022-11-16T14:07:10.012Z,14.54
2022-11-16T14:09:09.979Z,14.46
2022-11-16T14:11:10.047Z,14.38
2022-11-16T14:13:09.933Z,14.35
2022-11-16T14:15:51.524Z,14.21
2022-11-16T14:17:51.469Z,14.22
2022-11-16T14:19:51.473Z,14.26
2022-11-16T14:21:51.501Z,14.13
2022-11-16T14:23:51.517Z,14.11
2022-11-16T14:25:51.470Z,14.04
2022-11-16T14:27:51.592Z,14.06
2022-11-16T14:31:16.896Z,13.96
2022-11-16T14:33:16.845Z,13.95
2022-11-16T14:35:16.852Z,13.78
2022-11-16T14:37:16.913Z,13.91
2022-11-16T14:39:16.896Z,13.84
2022-11-16T14:41:16.857Z,13.77
2022-11-16T14:43:17.487Z,13.74
2022-11-16T14:46:11.417Z,13.76
2022-11-16T14:48:11.470Z,13.73
2022-11-16T14:50:11.415Z,13.68
2022-11-16T14:52:11.420Z,13.72
2022-11-16T14:54:11.428Z,13.64
2022-11-16T14:56:11.399Z,13.61
2022-11-16T14:58:11.446Z,13.66
2022-11-16T15:01:20.975Z,13.42
2022-11-16T15:03:20.915Z,13.49
2022-11-16T15:05:20.800Z,13.5
2022-11-16T15:07:20.866Z,13.51
2022-11-16T15:09:20.885Z,13.57
2022-11-16T15:11:20.832Z,13.6
2022-11-16T15:13:20.849Z,13.52
2022-11-16T15:16:34.562Z,13.47
2022-11-16T15:18:34.347Z,13.61
2022-11-16T15:20:34.350Z,13.58
2022-11-16T15:22:34.491Z,13.6
2022-11-16T15:24:34.365Z,13.65
2022-11-16T15:26:34.361Z,13.54
2022-11-16T15:28:34.381Z,13.56
2022-11-16T15:32:11.418Z,13.45
2022-11-16T15:34:11.490Z,13.48
2022-11-16T15:36:11.399Z,13.39
2022-11-16T15:38:11.347Z,13.32
2022-11-16T15:40:11.347Z,13.36
2022-11-16T15:42:11.366Z,13.42
2022-11-16T15:44:14.941Z,13.36
2022-11-16T15:46:43.143Z,13.38
2022-11-16T15:48:42.645Z,13.12
2022-11-16T15:50:42.559Z,13.28
2022-11-16T15:52:42.562Z,13.15
2022-11-16T15:54:42.576Z,13.09
2022-11-16T15:56:42.576Z,12.94
2022-11-16T15:58:42.547Z,12.99
2022-11-16T16:02:18.189Z,12.96
2022-11-16T16:04:18.249Z,12.9
2022-11-16T16:06:18.220Z,12.89
2022-11-16T16:08:18.200Z,12.72
2022-11-16T16:10:17.998Z,12.73
2022-11-16T16:12:18.045Z,12.55
2022-11-16T16:14:17.997Z,12.48
2022-11-16T16:17:00.727Z,12.52
2022-11-16T16:19:03.768Z,12.47
2022-11-16T16:21:00.867Z,12.53
2022-11-16T16:23:00.748Z,12.48
2022-11-16T16:25:00.706Z,12.44
2022-11-16T16:27:00.747Z,12.36
2022-11-16T16:29:00.712Z,12.25
2022-11-16T16:32:39.797Z,12.3
2022-11-16T16:34:42.320Z,12.32
2022-11-16T16:36:39.873Z,12.3
2022-11-16T16:38:39.724Z,12.21
2022-11-16T16:40:39.760Z,12.2
2022-11-16T16:42:39.788Z,12.15
2022-11-16T16:44:39.746Z,12.28
2022-11-16T16:47:39.461Z,12.22
2022-11-16T16:49:39.465Z,12.12
2022-11-16T16:51:39.481Z,12.19
2022-11-16T16:53:39.569Z,12.16
2022-11-16T16:55:39.452Z,12.18
2022-11-16T16:57:39.530Z,12.12
2022-11-16T16:59:39.482Z,12.12
2022-11-16T17:02:46.193Z,12.04
2022-11-16T17:04:46.083Z,12.08
2022-11-16T17:06:46.656Z,12.04
2022-11-16T17:08:46.246Z,12.19
2022-11-16T17:10:46.080Z,12.15
2022-11-16T17:12:46.088Z,12.1
2022-11-16T17:14:46.118Z,12.14
2022-11-16T17:17:44.212Z,12.12
2022-11-16T17:19:44.212Z,12.23
2022-11-16T17:21:44.122Z,12.12
2022-11-16T17:23:44.160Z,12.04
2022-11-16T17:25:44.285Z,11.89
2022-11-16T17:27:44.176Z,11.83
2022-11-16T17:29:44.141Z,12.01
2022-11-16T17:32:40.221Z,11.93
2022-11-16T17:34:40.167Z,11.93
2022-11-16T17:36:40.181Z,11.89
2022-11-16T17:38:40.198Z,11.77
2022-11-16T17:40:40.155Z,11.82
2022-11-16T17:42:40.375Z,11.71
2022-11-16T17:44:40.146Z,11.56
2022-11-16T17:46:40.162Z,11.71
2022-11-16T17:47:59.170Z,11.67
2022-11-16T17:49:59.031Z,11.55
2022-11-16T17:51:59.026Z,11.63
2022-11-16T17:53:59.164Z,11.62
2022-11-16T17:55:59.056Z,11.55
2022-11-16T17:57:59.081Z,11.52
2022-11-16T17:59:59.238Z,11.46
2022-11-16T18:01:58.956Z,11.46
2022-11-16T18:03:06.679Z,11.44
2022-11-16T18:05:06.668Z,11.47
2022-11-16T18:07:06.696Z,11.48
2022-11-16T18:09:06.661Z,11.59
2022-11-16T18:11:06.741Z,11.59
2022-11-16T18:13:06.784Z,11.44
2022-11-16T18:15:27.249Z,11.44
2022-11-16T18:17:06.701Z,11.43
2022-11-16T18:18:14.741Z,11.52
2022-11-16T18:20:14.834Z,11.65
2022-11-16T18:22:14.938Z,11.56
2022-11-16T18:24:14.641Z,11.39
2022-11-16T18:26:14.652Z,11.47
2022-11-16T18:28:14.748Z,11.49
2022-11-16T18:30:14.641Z,11.43
2022-11-16T18:32:14.685Z,11.37
2022-11-16T18:34:01.139Z,11.34
2022-11-16T18:36:01.241Z,11.27
2022-11-16T18:38:01.266Z,11.37
2022-11-16T18:40:01.098Z,11.32
2022-11-16T18:42:00.913Z,11.39
2022-11-16T18:44:01.193Z,11.37
2022-11-16T18:46:01.038Z,11.47
2022-11-16T18:49:19.652Z,11.39
2022-11-16T18:51:19.733Z,11.24
2022-11-16T18:53:19.615Z,11.41
2022-11-16T18:55:19.757Z,11.42
2022-11-16T18:57:19.869Z,11.33
2022-11-16T18:59:19.658Z,11.44
2022-11-16T19:01:19.822Z,11.2
2022-11-16T19:04:22.174Z,11.31
2022-11-16T19:06:22.085Z,11.41
2022-11-16T19:08:22.126Z,11.35
2022-11-16T19:10:22.218Z,11.32
2022-11-16T19:12:22.266Z,11.22
2022-11-16T19:14:22.324Z,11.36
2022-11-16T19:16:22.012Z,11.38
2022-11-16T19:18:50.177Z,11.27
2022-11-16T19:20:50.205Z,11.29
2022-11-16T19:22:50.136Z,11.27
2022-11-16T19:24:50.184Z,11.17
2022-11-16T19:26:50.228Z,11.23
2022-11-16T19:28:50.317Z,11.26
2022-11-16T19:30:50.260Z,11.33
2022-11-16T19:32:50.151Z,11.4
2022-11-16T19:34:33.112Z,11.33
2022-11-16T19:36:28.719Z,11.33
2022-11-16T19:38:28.660Z,11.28
2022-11-16T19:40:28.588Z,11.24
2022-11-16T19:42:29.164Z,11.23
2022-11-16T19:44:28.613Z,11.37
2022-11-16T19:46:28.776Z,11.41
2022-11-16T19:49:07.767Z,11.28
2022-11-16T19:51:07.771Z,11.22
2022-11-16T19:53:07.713Z,11.17
2022-11-16T19:55:07.785Z,11.27
2022-11-16T19:57:07.813Z,11.35
2022-11-16T19:59:07.731Z,11.38
2022-11-16T20:01:07.855Z,11.23
2022-11-16T20:03:07.869Z,11.1
2022-11-16T20:04:51.942Z,11.24
2022-11-16T20:06:51.993Z,11.21
2022-11-16T20:08:51.958Z,11.1
2022-11-16T20:10:51.934Z,10.83
2022-11-16T20:12:51.937Z,10.99
2022-11-16T20:14:52.329Z,10.96
2022-11-16T20:16:51.919Z,10.96
2022-11-16T20:20:11.442Z,11.03
2022-11-16T20:22:11.471Z,10.96
2022-11-16T20:24:11.476Z,10.88
2022-11-16T20:26:11.417Z,10.9
2022-11-16T20:28:11.425Z,10.94
2022-11-16T20:30:11.413Z,10.91
2022-11-16T20:32:11.412Z,10.85
2022-11-16T20:34:58.842Z,10.71
2022-11-16T20:36:58.913Z,10.83
2022-11-16T20:38:58.860Z,10.78
2022-11-16T20:40:58.836Z,10.88
2022-11-16T20:42:58.883Z,10.81
2022-11-16T20:44:58.859Z,10.63
2022-11-16T20:46:58.889Z,10.86
2022-11-16T20:50:23.391Z,10.96
2022-11-16T20:52:23.444Z,10.72
2022-11-16T20:54:23.389Z,11.03
2022-11-16T20:56:23.402Z,11.07
2022-11-16T20:58:23.390Z,11.05
2022-11-16T21:00:23.436Z,11.04
2022-11-16T21:02:23.480Z,10.91
2022-11-16T21:05:03.505Z,11.07
2022-11-16T21:07:03.476Z,11.05
2022-11-16T21:09:03.416Z,11.07
2022-11-16T21:11:03.384Z,10.99
2022-11-16T21:13:03.352Z,10.98
2022-11-16T21:15:03.431Z,10.84
2022-11-16T21:17:03.363Z,10.88
2022-11-16T21:19:03.483Z,10.92
2022-11-16T21:20:26.724Z,10.92
2022-11-16T21:22:10.995Z,10.79
2022-11-16T21:24:11.136Z,10.7
2022-11-16T21:26:11.008Z,10.85
2022-11-16T21:28:11.003Z,10.84
2022-11-16T21:30:11.002Z,10.95
2022-11-16T21:32:11.032Z,10.92
2022-11-16T21:34:11.036Z,10.88
2022-11-16T21:35:48.181Z,10.93
2022-11-16T21:37:48.172Z,10.97
2022-11-16T21:39:48.230Z,10.96
2022-11-16T21:41:48.165Z,10.93
2022-11-16T21:43:48.173Z,10.98
2022-11-16T21:45:48.194Z,10.99
2022-11-16T21:47:48.167Z,10.87
2022-11-16T21:50:58.521Z,10.97
2022-11-16T21:52:58.505Z,10.95
2022-11-16T21:54:58.627Z,10.88
2022-11-16T21:56:58.486Z,11.04
2022-11-16T21:58:58.543Z,11
2022-11-16T22:00:58.581Z,11.07
2022-11-16T22:02:58.478Z,11.03
2022-11-16T22:06:20.348Z,11.01
2022-11-16T22:08:20.307Z,11.03
2022-11-16T22:10:20.489Z,11.05
2022-11-16T22:12:20.289Z,11.14
2022-11-16T22:14:20.339Z,11.01
2022-11-16T22:16:20.293Z,11.07
2022-11-16T22:18:20.322Z,11.13
2022-11-16T22:20:52.489Z,11.06
2022-11-16T22:22:52.492Z,10.95
2022-11-16T22:24:52.525Z,10.72
2022-11-16T22:26:52.797Z,11
2022-11-16T22:28:52.553Z,10.99
2022-11-16T22:30:52.548Z,10.9
2022-11-16T22:32:52.523Z,10.92
2022-11-16T22:34:52.492Z,10.91
2022-11-16T22:36:43.255Z,10.99
2022-11-16T22:38:43.301Z,10.87
2022-11-16T22:40:43.247Z,11.01
2022-11-16T22:42:43.312Z,11.04
2022-11-16T22:44:43.268Z,11.08
2022-11-16T22:46:43.242Z,11.1
2022-11-16T22:48:43.260Z,11.1
2022-11-16T22:51:34.360Z,11.13
2022-11-16T22:53:34.775Z,11.25
2022-11-16T22:55:34.380Z,11.1
2022-11-16T22:57:34.345Z,11.23
2022-11-16T22:59:34.366Z,11.25
2022-11-16T23:01:34.373Z,11.18
2022-11-16T23:03:34.822Z,11.21
2022-11-16T23:06:31.310Z,11.2
2022-11-16T23:08:31.256Z,11.16
2022-11-16T23:10:31.242Z,11.13
2022-11-16T23:12:31.257Z,11.26
2022-11-16T23:14:31.242Z,11.23
2022-11-16T23:16:31.368Z,11.1
2022-11-16T23:18:31.258Z,11.28
2022-11-16T23:22:07.806Z,11.34
2022-11-16T23:24:07.806Z,11.46
2022-11-16T23:26:07.875Z,11.35
2022-11-16T23:28:07.824Z,11.2
2022-11-16T23:30:12.029Z,11.39
2022-11-16T23:32:07.928Z,11.39
2022-11-16T23:34:07.816Z,11.4
2022-11-16T23:36:57.888Z,11.29
2022-11-16T23:38:58.029Z,11.31
2022-11-16T23:40:57.854Z,11.43
2022-11-16T23:42:57.905Z,11.37
2022-11-16T23:44:57.911Z,11.36
2022-11-16T23:46:57.968Z,11.31
2022-11-16T23:48:57.864Z,11.33
2022-11-16T23:52:16.560Z,11.41
2022-11-16T23:54:16.585Z,11.25
2022-11-16T23:56:16.586Z,11.4
2022-11-16T23:58:16.612Z,11.43
